sensor_id;sensor_type;location;lat;lon;timestamp;pressure;altitude;pressure_sealevel;temperature;humidity
11038;BME280;5572;49.540;11.932;2023-09-19T00:01:43;94577.94;;;14.76;100.00
11038;BME280;5572;49.540;11.932;2023-09-19T00:04:12;94584.69;;;14.63;100.00
11038;BME280;5572;49.540;11.932;2023-09-19T00:06:40;94595.28;;;14.68;100.00
11038;BME280;5572;49.540;11.932;2023-09-19T00:09:06;94603.72;;;14.63;100.00
11038;BME280;5572;49.540;11.932;2023-09-19T00:11:36;94608.34;;;14.59;100.00
11038;BME280;5572;49.540;11.932;2023-09-19T00:14:03;94619.38;;;14.69;100.00
11038;BME280;5572;49.540;11.932;2023-09-19T00:16:30;94621.94;;;14.59;100.00
11038;BME280;5572;49.540;11.932;2023-09-19T00:18:58;94613.34;;;14.57;100.00
11038;BME280;5572;49.540;11.932;2023-09-19T00:21:26;94605.25;;;14.61;100.00
11038;BME280;5572;49.540;11.932;2023-09-19T00:23:53;94608.50;;;14.69;100.00
11038;BME280;5572;49.540;11.932;2023-09-19T00:26:20;94615.25;;;14.75;100.00
11038;BME280;5572;49.540;11.932;2023-09-19T00:28:47;94615.72;;;14.81;100.00
11038;BME280;5572;49.540;11.932;2023-09-19T00:31:14;94618.06;;;14.82;100.00
11038;BME280;5572;49.540;11.932;2023-09-19T00:33:40;94614.22;;;14.83;100.00
11038;BME280;5572;49.540;11.932;2023-09-19T00:36:08;94622.41;;;14.87;100.00
11038;BME280;5572;49.540;11.932;2023-09-19T00:38:36;94623.41;;;14.98;100.00
11038;BME280;5572;49.540;11.932;2023-09-19T00:41:02;94617.63;;;15.03;100.00
11038;BME280;5572;49.540;11.932;2023-09-19T00:43:29;94624.53;;;14.97;100.00
11038;BME280;5572;49.540;11.932;2023-09-19T00:45:59;94630.91;;;15.04;100.00
11038;BME280;5572;49.540;11.932;2023-09-19T00:48:29;94632.63;;;15.16;100.00
11038;BME280;5572;49.540;11.932;2023-09-19T00:50:57;94630.22;;;15.11;100.00
11038;BME280;5572;49.540;11.932;2023-09-19T00:53:25;94626.03;;;15.17;100.00
11038;BME280;5572;49.540;11.932;2023-09-19T00:55:54;94627.91;;;15.13;100.00
11038;BME280;5572;49.540;11.932;2023-09-19T00:58:21;94657.00;;;15.09;100.00
11038;BME280;5572;49.540;11.932;2023-09-19T01:00:48;94665.84;;;15.02;100.00
11038;BME280;5572;49.540;11.932;2023-09-19T01:03:15;94668.72;;;15.13;100.00
11038;BME280;5572;49.540;11.932;2023-09-19T01:05:43;94680.03;;;15.15;100.00
11038;BME280;5572;49.540;11.932;2023-09-19T01:08:10;94694.50;;;15.19;100.00
11038;BME280;5572;49.540;11.932;2023-09-19T01:10:44;94702.34;;;15.01;100.00
11038;BME280;5572;49.540;11.932;2023-09-19T01:13:22;94722.13;;;14.98;100.00
11038;BME280;5572;49.540;11.932;2023-09-19T01:15:57;94723.84;;;15.06;100.00
11038;BME280;5572;49.540;11.932;2023-09-19T01:18:30;94735.22;;;14.93;100.00
11038;BME280;5572;49.540;11.932;2023-09-19T01:21:06;94753.78;;;14.87;100.00
11038;BME280;5572;49.540;11.932;2023-09-19T01:23:52;94745.91;;;14.82;100.00
11038;BME280;5572;49.540;11.932;2023-09-19T01:26:43;94777.63;;;14.75;100.00
11038;BME280;5572;49.540;11.932;2023-09-19T01:29:33;94799.44;;;14.78;100.00
11038;BME280;5572;49.540;11.932;2023-09-19T01:32:06;94809.13;;;14.76;100.00
11038;BME280;5572;49.540;11.932;2023-09-19T01:34:45;94809.63;;;14.81;100.00
11038;BME280;5572;49.540;11.932;2023-09-19T01:37:14;94804.06;;;14.93;100.00
11038;BME280;5572;49.540;11.932;2023-09-19T01:39:44;94823.66;;;14.83;100.00
11038;BME280;5572;49.540;11.932;2023-09-19T01:42:21;94826.53;;;14.90;100.00
11038;BME280;5572;49.540;11.932;2023-09-19T01:44:55;94821.66;;;14.99;100.00
11038;BME280;5572;49.540;11.932;2023-09-19T01:47:28;94829.88;;;15.03;100.00
11038;BME280;5572;49.540;11.932;2023-09-19T01:50:03;94828.97;;;15.14;100.00
11038;BME280;5572;49.540;11.932;2023-09-19T01:52:38;94851.16;;;14.97;100.00
11038;BME280;5572;49.540;11.932;2023-09-19T01:55:09;94873.78;;;15.01;100.00
11038;BME280;5572;49.540;11.932;2023-09-19T01:57:42;94911.75;;;14.94;100.00
11038;BME280;5572;49.540;11.932;2023-09-19T02:00:12;94933.09;;;14.77;100.00
11038;BME280;5572;49.540;11.932;2023-09-19T02:02:43;94934.69;;;14.78;100.00
11038;BME280;5572;49.540;11.932;2023-09-19T02:05:10;94943.72;;;14.82;100.00
11038;BME280;5572;49.540;11.932;2023-09-19T02:07:38;94958.28;;;14.74;100.00
11038;BME280;5572;49.540;11.932;2023-09-19T02:10:06;94970.50;;;14.80;100.00
11038;BME280;5572;49.540;11.932;2023-09-19T02:12:35;94989.34;;;14.73;100.00
11038;BME280;5572;49.540;11.932;2023-09-19T02:15:01;95017.34;;;14.73;100.00
11038;BME280;5572;49.540;11.932;2023-09-19T02:17:28;95033.84;;;14.80;100.00
11038;BME280;5572;49.540;11.932;2023-09-19T02:19:57;95065.34;;;14.81;100.00
11038;BME280;5572;49.540;11.932;2023-09-19T02:22:26;95105.53;;;14.88;100.00
11038;BME280;5572;49.540;11.932;2023-09-19T02:24:53;95150.72;;;14.77;100.00
11038;BME280;5572;49.540;11.932;2023-09-19T02:27:19;95166.06;;;14.69;100.00
11038;BME280;5572;49.540;11.932;2023-09-19T02:29:46;95194.13;;;14.58;100.00
11038;BME280;5572;49.540;11.932;2023-09-19T02:32:14;95197.88;;;14.54;100.00
11038;BME280;5572;49.540;11.932;2023-09-19T02:34:43;95203.69;;;14.67;100.00
11038;BME280;5572;49.540;11.932;2023-09-19T02:37:11;95205.50;;;14.75;100.00
11038;BME280;5572;49.540;11.932;2023-09-19T02:39:38;95214.28;;;14.84;100.00
11038;BME280;5572;49.540;11.932;2023-09-19T02:42:05;95223.81;;;14.78;100.00
11038;BME280;5572;49.540;11.932;2023-09-19T02:44:32;95216.09;;;14.80;100.00
11038;BME280;5572;49.540;11.932;2023-09-19T02:46:59;95208.38;;;14.82;100.00
11038;BME280;5572;49.540;11.932;2023-09-19T02:49:25;95198.28;;;14.83;100.00
11038;BME280;5572;49.540;11.932;2023-09-19T02:51:52;95207.84;;;14.77;100.00
11038;BME280;5572;49.540;11.932;2023-09-19T02:54:20;95219.88;;;14.76;100.00
11038;BME280;5572;49.540;11.932;2023-09-19T02:56:47;95210.38;;;14.70;100.00
11038;BME280;5572;49.540;11.932;2023-09-19T02:59:13;95223.03;;;14.78;100.00
11038;BME280;5572;49.540;11.932;2023-09-19T03:01:43;95249.78;;;14.76;100.00
11038;BME280;5572;49.540;11.932;2023-09-19T03:04:10;95257.94;;;14.76;100.00
11038;BME280;5572;49.540;11.932;2023-09-19T03:06:36;95242.63;;;14.83;100.00
11038;BME280;5572;49.540;11.932;2023-09-19T03:09:04;95237.19;;;14.83;100.00
11038;BME280;5572;49.540;11.932;2023-09-19T03:11:37;95248.59;;;14.89;100.00
11038;BME280;5572;49.540;11.932;2023-09-19T03:14:05;95251.56;;;14.84;100.00
11038;BME280;5572;49.540;11.932;2023-09-19T03:16:32;95241.94;;;14.86;100.00
11038;BME280;5572;49.540;11.932;2023-09-19T03:18:58;95243.34;;;14.96;100.00
11038;BME280;5572;49.540;11.932;2023-09-19T03:21:25;95244.03;;;14.93;100.00
11038;BME280;5572;49.540;11.932;2023-09-19T03:23:54;95251.28;;;15.01;100.00
11038;BME280;5572;49.540;11.932;2023-09-19T03:26:21;95243.44;;;14.99;100.00
11038;BME280;5572;49.540;11.932;2023-09-19T03:28:49;95254.75;;;15.01;100.00
11038;BME280;5572;49.540;11.932;2023-09-19T03:31:15;95251.28;;;15.01;100.00
11038;BME280;5572;49.540;11.932;2023-09-19T03:33:42;95261.78;;;15.02;100.00
11038;BME280;5572;49.540;11.932;2023-09-19T03:36:09;95255.22;;;15.03;100.00
11038;BME280;5572;49.540;11.932;2023-09-19T03:38:35;95250.03;;;15.14;100.00
11038;BME280;5572;49.540;11.932;2023-09-19T03:41:02;95253.91;;;15.13;100.00
11038;BME280;5572;49.540;11.932;2023-09-19T03:43:29;95246.63;;;15.17;100.00
11038;BME280;5572;49.540;11.932;2023-09-19T03:46:01;95233.47;;;15.19;100.00
11038;BME280;5572;49.540;11.932;2023-09-19T03:48:28;95204.78;;;15.37;100.00
11038;BME280;5572;49.540;11.932;2023-09-19T03:50:56;95187.22;;;15.50;100.00
11038;BME280;5572;49.540;11.932;2023-09-19T03:53:22;95166.00;;;15.58;100.00
11038;BME280;5572;49.540;11.932;2023-09-19T03:55:49;95149.31;;;15.60;100.00
11038;BME280;5572;49.540;11.932;2023-09-19T03:58:15;95124.97;;;15.67;100.00
11038;BME280;5572;49.540;11.932;2023-09-19T04:00:42;95114.69;;;15.60;100.00
11038;BME280;5572;49.540;11.932;2023-09-19T04:03:10;95126.38;;;15.61;100.00
11038;BME280;5572;49.540;11.932;2023-09-19T04:05:44;95113.91;;;15.60;100.00
11038;BME280;5572;49.540;11.932;2023-09-19T04:08:11;95107.81;;;15.66;100.00
11038;BME280;5572;49.540;11.932;2023-09-19T04:10:38;95072.97;;;15.75;100.00
11038;BME280;5572;49.540;11.932;2023-09-19T04:13:04;95061.38;;;15.78;100.00
11038;BME280;5572;49.540;11.932;2023-09-19T04:15:32;95042.75;;;15.80;100.00
11038;BME280;5572;49.540;11.932;2023-09-19T04:17:59;95029.53;;;15.82;100.00
11038;BME280;5572;49.540;11.932;2023-09-19T04:20:27;95027.97;;;15.81;100.00
11038;BME280;5572;49.540;11.932;2023-09-19T04:22:54;95009.69;;;15.82;100.00
11038;BME280;5572;49.540;11.932;2023-09-19T04:25:20;94994.09;;;15.82;100.00
11038;BME280;5572;49.540;11.932;2023-09-19T04:27:47;94982.28;;;15.94;100.00
11038;BME280;5572;49.540;11.932;2023-09-19T04:30:14;94967.13;;;15.96;100.00
11038;BME280;5572;49.540;11.932;2023-09-19T04:32:41;94958.25;;;15.99;100.00
11038;BME280;5572;49.540;11.932;2023-09-19T04:35:09;94941.94;;;16.03;100.00
11038;BME280;5572;49.540;11.932;2023-09-19T04:37:38;94916.75;;;16.09;100.00
11038;BME280;5572;49.540;11.932;2023-09-19T04:40:06;94909.72;;;16.08;100.00
11038;BME280;5572;49.540;11.932;2023-09-19T04:42:38;94905.38;;;16.04;100.00
11038;BME280;5572;49.540;11.932;2023-09-19T04:45:05;94875.81;;;16.06;100.00
11038;BME280;5572;49.540;11.932;2023-09-19T04:47:32;94860.78;;;16.15;100.00
11038;BME280;5572;49.540;11.932;2023-09-19T04:49:59;94828.06;;;16.15;100.00
11038;BME280;5572;49.540;11.932;2023-09-19T04:52:25;94819.19;;;16.22;100.00
11038;BME280;5572;49.540;11.932;2023-09-19T04:54:53;94791.50;;;16.20;100.00
11038;BME280;5572;49.540;11.932;2023-09-19T04:57:19;94766.28;;;16.26;100.00
11038;BME280;5572;49.540;11.932;2023-09-19T04:59:47;94747.53;;;16.21;100.00
11038;BME280;5572;49.540;11.932;2023-09-19T05:02:13;94729.28;;;16.25;100.00
11038;BME280;5572;49.540;11.932;2023-09-19T05:04:40;94700.44;;;16.24;100.00
11038;BME280;5572;49.540;11.932;2023-09-19T05:07:06;94677.13;;;16.27;100.00
11038;BME280;5572;49.540;11.932;2023-09-19T05:09:33;94651.41;;;16.28;100.00
11038;BME280;5572;49.540;11.932;2023-09-19T05:12:01;94627.34;;;16.33;100.00
11038;BME280;5572;49.540;11.932;2023-09-19T05:14:27;94601.66;;;16.34;100.00
11038;BME280;5572;49.540;11.932;2023-09-19T05:16:54;94572.81;;;16.33;100.00
11038;BME280;5572;49.540;11.932;2023-09-19T05:19:20;94549.16;;;16.44;100.00
11038;BME280;5572;49.540;11.932;2023-09-19T05:21:47;94532.75;;;16.37;100.00
11038;BME280;5572;49.540;11.932;2023-09-19T05:24:14;94511.69;;;16.38;100.00
11038;BME280;5572;49.540;11.932;2023-09-19T05:26:42;94467.72;;;16.39;100.00
11038;BME280;5572;49.540;11.932;2023-09-19T05:29:10;94445.13;;;16.42;100.00
11038;BME280;5572;49.540;11.932;2023-09-19T05:31:38;94407.34;;;16.44;100.00
11038;BME280;5572;49.540;11.932;2023-09-19T05:34:06;94374.28;;;16.49;100.00
11038;BME280;5572;49.540;11.932;2023-09-19T05:36:32;94347.72;;;16.39;100.00
11038;BME280;5572;49.540;11.932;2023-09-19T05:38:59;94308.84;;;16.49;100.00
11038;BME280;5572;49.540;11.932;2023-09-19T05:41:25;94280.75;;;16.45;100.00
11038;BME280;5572;49.540;11.932;2023-09-19T05:43:52;94232.84;;;16.47;100.00
11038;BME280;5572;49.540;11.932;2023-09-19T05:46:20;94198.19;;;16.48;100.00
11038;BME280;5572;49.540;11.932;2023-09-19T05:48:47;94184.53;;;16.48;100.00
11038;BME280;5572;49.540;11.932;2023-09-19T05:51:15;94168.53;;;16.43;100.00
11038;BME280;5572;49.540;11.932;2023-09-19T05:53:43;94142.88;;;16.58;100.00
11038;BME280;5572;49.540;11.932;2023-09-19T05:56:09;94095.00;;;16.85;100.00
11038;BME280;5572;49.540;11.932;2023-09-19T05:58:36;94012.63;;;17.73;100.00
11038;BME280;5572;49.540;11.932;2023-09-19T06:01:03;93909.44;;;19.40;100.00
11038;BME280;5572;49.540;11.932;2023-09-19T06:03:33;93658.88;;;22.72;100.00
11038;BME280;5572;49.540;11.932;2023-09-19T06:06:00;94022.91;;;19.83;100.00
11038;BME280;5572;49.540;11.932;2023-09-19T06:08:27;93998.88;;;19.60;100.00
11038;BME280;5572;49.540;11.932;2023-09-19T06:10:54;94029.09;;;18.52;100.00
11038;BME280;5572;49.540;11.932;2023-09-19T06:13:21;93836.13;;;21.21;100.00
11038;BME280;5572;49.540;11.932;2023-09-19T06:15:48;93656.28;;;23.72;100.00
11038;BME280;5572;49.540;11.932;2023-09-19T06:18:15;93676.41;;;23.60;100.00
11038;BME280;5572;49.540;11.932;2023-09-19T06:20:46;93522.50;;;24.23;100.00
11038;BME280;5572;49.540;11.932;2023-09-19T06:23:13;93617.78;;;22.21;100.00
11038;BME280;5572;49.540;11.932;2023-09-19T06:25:39;93608.34;;;21.27;100.00
11038;BME280;5572;49.540;11.932;2023-09-19T06:28:06;93666.00;;;19.88;100.00
11038;BME280;5572;49.540;11.932;2023-09-19T06:30:33;93477.56;;;21.29;100.00
11038;BME280;5572;49.540;11.932;2023-09-19T06:33:00;93506.94;;;21.16;100.00
11038;BME280;5572;49.540;11.932;2023-09-19T06:35:32;93479.38;;;20.53;100.00
11038;BME280;5572;49.540;11.932;2023-09-19T06:38:02;93595.16;;;18.88;100.00
11038;BME280;5572;49.540;11.932;2023-09-19T06:40:29;93593.47;;;18.37;100.00
11038;BME280;5572;49.540;11.932;2023-09-19T06:42:57;93547.94;;;18.24;100.00
11038;BME280;5572;49.540;11.932;2023-09-19T06:45:23;93544.63;;;18.06;100.00
11038;BME280;5572;49.540;11.932;2023-09-19T06:47:52;93547.28;;;17.80;100.00
11038;BME280;5572;49.540;11.932;2023-09-19T06:50:23;93523.91;;;17.75;100.00
11038;BME280;5572;49.540;11.932;2023-09-19T06:52:51;93508.88;;;17.60;100.00
11038;BME280;5572;49.540;11.932;2023-09-19T06:55:21;93484.19;;;17.67;100.00
11038;BME280;5572;49.540;11.932;2023-09-19T06:57:50;93452.75;;;17.86;100.00
11038;BME280;5572;49.540;11.932;2023-09-19T07:00:20;93465.44;;;17.69;100.00
11038;BME280;5572;49.540;11.932;2023-09-19T07:02:55;93457.84;;;17.84;100.00
11038;BME280;5572;49.540;11.932;2023-09-19T07:05:21;93434.47;;;18.09;100.00
11038;BME280;5572;49.540;11.932;2023-09-19T07:07:48;93486.41;;;17.79;100.00
11038;BME280;5572;49.540;11.932;2023-09-19T07:10:15;93482.22;;;18.01;100.00
11038;BME280;5572;49.540;11.932;2023-09-19T07:12:44;93483.72;;;18.06;100.00
11038;BME280;5572;49.540;11.932;2023-09-19T07:15:11;93480.69;;;18.30;100.00
11038;BME280;5572;49.540;11.932;2023-09-19T07:17:37;93238.59;;;21.91;100.00
11038;BME280;5572;49.540;11.932;2023-09-19T07:20:05;93545.22;;;21.87;100.00
11038;BME280;5572;49.540;11.932;2023-09-19T07:22:33;93705.34;;;21.78;100.00
11038;BME280;5572;49.540;11.932;2023-09-19T07:24:59;93994.44;;;20.66;100.00
11038;BME280;5572;49.540;11.932;2023-09-19T07:27:26;94029.38;;;20.92;100.00
11038;BME280;5572;49.540;11.932;2023-09-19T07:29:53;93979.13;;;23.56;100.00
11038;BME280;5572;49.540;11.932;2023-09-19T07:32:20;94134.47;;;23.69;100.00
11038;BME280;5572;49.540;11.932;2023-09-19T07:34:47;94160.72;;;24.97;100.00
11038;BME280;5572;49.540;11.932;2023-09-19T07:37:13;94397.56;;;23.17;100.00
11038;BME280;5572;49.540;11.932;2023-09-19T07:39:41;94538.50;;;20.61;100.00
11038;BME280;5572;49.540;11.932;2023-09-19T07:42:08;94545.31;;;20.32;100.00
11038;BME280;5572;49.540;11.932;2023-09-19T07:44:36;94501.91;;;20.13;100.00
11038;BME280;5572;49.540;11.932;2023-09-19T07:47:04;94505.41;;;20.21;100.00
11038;BME280;5572;49.540;11.932;2023-09-19T07:49:31;94479.41;;;21.81;100.00
11038;BME280;5572;49.540;11.932;2023-09-19T07:51:58;94477.56;;;22.90;100.00
11038;BME280;5572;49.540;11.932;2023-09-19T07:54:24;94603.63;;;20.61;100.00
11038;BME280;5572;49.540;11.932;2023-09-19T07:56:51;94492.88;;;24.44;100.00
11038;BME280;5572;49.540;11.932;2023-09-19T07:59:20;94744.66;;;21.83;100.00
11038;BME280;5572;49.540;11.932;2023-09-19T08:01:47;94846.72;;;19.82;100.00
11038;BME280;5572;49.540;11.932;2023-09-19T08:04:15;94844.66;;;19.40;100.00
11038;BME280;5572;49.540;11.932;2023-09-19T08:06:42;94872.53;;;18.85;100.00
11038;BME280;5572;49.540;11.932;2023-09-19T08:09:09;94838.16;;;18.98;100.00
11038;BME280;5572;49.540;11.932;2023-09-19T08:11:41;94803.84;;;19.14;100.00
11038;BME280;5572;49.540;11.932;2023-09-19T08:14:08;94807.38;;;19.18;100.00
11038;BME280;5572;49.540;11.932;2023-09-19T08:16:35;94624.63;;;21.56;100.00
11038;BME280;5572;49.540;11.932;2023-09-19T08:19:01;94795.97;;;21.39;100.00
11038;BME280;5572;49.540;11.932;2023-09-19T08:21:29;94852.97;;;21.21;100.00
11038;BME280;5572;49.540;11.932;2023-09-19T08:23:57;94935.88;;;21.09;100.00
11038;BME280;5572;49.540;11.932;2023-09-19T08:26:23;94717.97;;;27.15;100.00
11038;BME280;5572;49.540;11.932;2023-09-19T08:28:50;94918.50;;;28.98;100.00
11038;BME280;5572;49.540;11.932;2023-09-19T08:31:18;95232.03;;;26.35;100.00
11038;BME280;5572;49.540;11.932;2023-09-19T08:33:46;95272.03;;;27.61;100.00
11038;BME280;5572;49.540;11.932;2023-09-19T08:36:14;95478.88;;;25.47;100.00
11038;BME280;5572;49.540;11.932;2023-09-19T08:38:42;95607.91;;;24.56;100.00
11038;BME280;5572;49.540;11.932;2023-09-19T08:41:09;95598.16;;;25.06;100.00
11038;BME280;5572;49.540;11.932;2023-09-19T08:43:36;95567.13;;;27.19;100.00
11038;BME280;5572;49.540;11.932;2023-09-19T08:46:09;95829.44;;;22.53;100.00
11038;BME280;5572;49.540;11.932;2023-09-19T08:48:39;95867.53;;;22.44;100.00
11038;BME280;5572;49.540;11.932;2023-09-19T08:51:15;95912.94;;;21.55;100.00
11038;BME280;5572;49.540;11.932;2023-09-19T08:53:51;95962.53;;;20.59;100.00
11038;BME280;5572;49.540;11.932;2023-09-19T08:56:18;95874.28;;;22.50;100.00
11038;BME280;5572;49.540;11.932;2023-09-19T08:58:50;95877.34;;;22.42;100.00
11038;BME280;5572;49.540;11.932;2023-09-19T09:01:18;95857.00;;;23.10;100.00
11038;BME280;5572;49.540;11.932;2023-09-19T09:03:51;95922.56;;;22.01;100.00
11038;BME280;5572;49.540;11.932;2023-09-19T09:06:17;95972.94;;;21.46;100.00
11038;BME280;5572;49.540;11.932;2023-09-19T09:08:47;95960.06;;;22.49;100.00
11038;BME280;5572;49.540;11.932;2023-09-19T09:11:14;95978.28;;;21.91;100.00
11038;BME280;5572;49.540;11.932;2023-09-19T09:13:43;96008.56;;;21.91;100.00
11038;BME280;5572;49.540;11.932;2023-09-19T09:16:10;96031.41;;;21.66;100.00
11038;BME280;5572;49.540;11.932;2023-09-19T09:18:38;95985.38;;;23.04;100.00
11038;BME280;5572;49.540;11.932;2023-09-19T09:21:05;95980.03;;;22.78;100.00
11038;BME280;5572;49.540;11.932;2023-09-19T09:23:31;96043.41;;;21.80;100.00
11038;BME280;5572;49.540;11.932;2023-09-19T09:25:59;96012.41;;;23.35;100.00
11038;BME280;5572;49.540;11.932;2023-09-19T09:28:30;96029.97;;;22.73;100.00
11038;BME280;5572;49.540;11.932;2023-09-19T09:30:58;96067.47;;;22.45;100.00
11038;BME280;5572;49.540;11.932;2023-09-19T09:33:26;96085.03;;;22.04;100.00
11038;BME280;5572;49.540;11.932;2023-09-19T09:35:55;96046.25;;;23.32;100.00
11038;BME280;5572;49.540;11.932;2023-09-19T09:38:24;96095.94;;;22.27;100.00
11038;BME280;5572;49.540;11.932;2023-09-19T09:40:53;96082.06;;;22.49;100.00
11038;BME280;5572;49.540;11.932;2023-09-19T09:43:28;96104.72;;;22.36;100.00
11038;BME280;5572;49.540;11.932;2023-09-19T09:46:09;96119.50;;;21.69;100.00
11038;BME280;5572;49.540;11.932;2023-09-19T09:48:58;96130.56;;;22.28;100.00
11038;BME280;5572;49.540;11.932;2023-09-19T09:51:42;96127.44;;;22.29;100.00
11038;BME280;5572;49.540;11.932;2023-09-19T09:54:11;96117.22;;;22.59;100.00
11038;BME280;5572;49.540;11.932;2023-09-19T09:56:58;96139.72;;;21.80;100.00
11038;BME280;5572;49.540;11.932;2023-09-19T09:59:50;96164.38;;;21.73;100.00
11038;BME280;5572;49.540;11.932;2023-09-19T10:02:19;96119.38;;;23.12;100.00
11038;BME280;5572;49.540;11.932;2023-09-19T10:04:51;96138.09;;;22.96;100.00
11038;BME280;5572;49.540;11.932;2023-09-19T10:07:25;96161.06;;;22.42;100.00
11038;BME280;5572;49.540;11.932;2023-09-19T10:09:52;96163.09;;;22.19;100.00
11038;BME280;5572;49.540;11.932;2023-09-19T10:12:25;96176.97;;;22.26;100.00
11038;BME280;5572;49.540;11.932;2023-09-19T10:14:57;96165.69;;;22.63;100.00
11038;BME280;5572;49.540;11.932;2023-09-19T10:17:25;96208.53;;;22.06;100.00
11038;BME280;5572;49.540;11.932;2023-09-19T10:19:54;96203.94;;;22.13;100.00
11038;BME280;5572;49.540;11.932;2023-09-19T10:22:23;96216.50;;;21.88;100.00
11038;BME280;5572;49.540;11.932;2023-09-19T10:24:53;96222.03;;;21.66;100.00
11038;BME280;5572;49.540;11.932;2023-09-19T10:27:21;96179.34;;;22.53;100.00
11038;BME280;5572;49.540;11.932;2023-09-19T10:29:52;96217.41;;;21.29;100.00
11038;BME280;5572;49.540;11.932;2023-09-19T10:32:22;96206.13;;;21.78;100.00
11038;BME280;5572;49.540;11.932;2023-09-19T10:34:49;96165.00;;;22.73;100.00
11038;BME280;5572;49.540;11.932;2023-09-19T10:37:16;96189.94;;;21.73;100.00
11038;BME280;5572;49.540;11.932;2023-09-19T10:39:46;96180.03;;;22.47;100.00
11038;BME280;5572;49.540;11.932;2023-09-19T10:42:17;96188.06;;;22.03;100.00
11038;BME280;5572;49.540;11.932;2023-09-19T10:44:45;96188.75;;;22.26;100.00
11038;BME280;5572;49.540;11.932;2023-09-19T10:47:15;96203.06;;;22.61;100.00
11038;BME280;5572;49.540;11.932;2023-09-19T10:49:46;96209.59;;;22.50;100.00
11038;BME280;5572;49.540;11.932;2023-09-19T10:52:14;96225.38;;;22.01;100.00
11038;BME280;5572;49.540;11.932;2023-09-19T10:54:46;96181.28;;;22.53;100.00
11038;BME280;5572;49.540;11.932;2023-09-19T10:57:20;96226.13;;;22.50;100.00
11038;BME280;5572;49.540;11.932;2023-09-19T11:00:03;96225.28;;;22.20;100.00
11038;BME280;5572;49.540;11.932;2023-09-19T11:03:16;96255.66;;;22.27;100.00
11038;BME280;5572;49.540;11.932;2023-09-19T11:08:56;96235.94;;;22.76;100.00
11038;BME280;5572;49.540;11.932;2023-09-19T11:11:46;96201.78;;;23.17;100.00
11038;BME280;5572;49.540;11.932;2023-09-19T11:14:37;96212.25;;;22.72;100.00
11038;BME280;5572;49.540;11.932;2023-09-19T11:17:32;96225.34;;;22.78;100.00
11038;BME280;5572;49.540;11.932;2023-09-19T11:20:21;96281.53;;;23.00;100.00
11038;BME280;5572;49.540;11.932;2023-09-19T11:23:22;96258.72;;;22.73;100.00
11038;BME280;5572;49.540;11.932;2023-09-19T11:25:52;96313.06;;;22.47;100.00
11038;BME280;5572;49.540;11.932;2023-09-19T11:28:33;96301.69;;;22.78;100.00
11038;BME280;5572;49.540;11.932;2023-09-19T11:36:57;96303.81;;;22.88;100.00
11038;BME280;5572;49.540;11.932;2023-09-19T11:39:25;96349.88;;;21.91;100.00
11038;BME280;5572;49.540;11.932;2023-09-19T11:41:54;96389.56;;;22.31;100.00
11038;BME280;5572;49.540;11.932;2023-09-19T11:44:32;96354.66;;;22.39;100.00
11038;BME280;5572;49.540;11.932;2023-09-19T11:47:00;96372.31;;;22.34;100.00
11038;BME280;5572;49.540;11.932;2023-09-19T11:49:29;96385.66;;;22.80;100.00
11038;BME280;5572;49.540;11.932;2023-09-19T11:51:58;96411.09;;;22.48;100.00
11038;BME280;5572;49.540;11.932;2023-09-19T11:54:27;96332.59;;;23.16;100.00
11038;BME280;5572;49.540;11.932;2023-09-19T11:56:59;96395.38;;;21.85;100.00
11038;BME280;5572;49.540;11.932;2023-09-19T11:59:26;96389.50;;;23.02;100.00
11038;BME280;5572;49.540;11.932;2023-09-19T12:01:56;96357.13;;;23.57;100.00
11038;BME280;5572;49.540;11.932;2023-09-19T12:04:34;96383.56;;;23.00;100.00
11038;BME280;5572;49.540;11.932;2023-09-19T12:07:03;96362.81;;;22.83;100.00
11038;BME280;5572;49.540;11.932;2023-09-19T12:09:31;96391.41;;;22.72;100.00
11038;BME280;5572;49.540;11.932;2023-09-19T12:11:59;96390.25;;;22.73;100.00
11038;BME280;5572;49.540;11.932;2023-09-19T12:14:26;96430.31;;;21.81;100.00
11038;BME280;5572;49.540;11.932;2023-09-19T12:16:54;96480.84;;;22.11;100.00
11038;BME280;5572;49.540;11.932;2023-09-19T12:19:22;96485.75;;;22.21;100.00
11038;BME280;5572;49.540;11.932;2023-09-19T12:21:59;96440.19;;;21.67;100.00
11038;BME280;5572;49.540;11.932;2023-09-19T12:24:29;96475.09;;;20.94;100.00
11038;BME280;5572;49.540;11.932;2023-09-19T12:27:01;96506.50;;;20.78;100.00
11038;BME280;5572;49.540;11.932;2023-09-19T12:29:32;96472.16;;;20.72;100.00
11038;BME280;5572;49.540;11.932;2023-09-19T12:31:59;96420.03;;;21.06;100.00
11038;BME280;5572;49.540;11.932;2023-09-19T12:34:30;96375.81;;;21.14;100.00
11038;BME280;5572;49.540;11.932;2023-09-19T12:37:04;96388.78;;;20.64;100.00
11038;BME280;5572;49.540;11.932;2023-09-19T12:39:37;96336.56;;;21.74;100.00
11038;BME280;5572;49.540;11.932;2023-09-19T12:42:05;96249.34;;;22.49;100.00
11038;BME280;5572;49.540;11.932;2023-09-19T12:44:34;96226.81;;;22.43;100.00
11038;BME280;5572;49.540;11.932;2023-09-19T12:47:08;96255.19;;;21.54;100.00
11038;BME280;5572;49.540;11.932;2023-09-19T12:49:35;96287.16;;;22.03;100.00
11038;BME280;5572;49.540;11.932;2023-09-19T12:52:02;96276.41;;;21.95;100.00
11038;BME280;5572;49.540;11.932;2023-09-19T12:54:38;96216.16;;;22.42;100.00
11038;BME280;5572;49.540;11.932;2023-09-19T12:57:06;96223.03;;;22.84;100.00
11038;BME280;5572;49.540;11.932;2023-09-19T12:59:33;96215.88;;;23.09;100.00
11038;BME280;5572;49.540;11.932;2023-09-19T13:02:05;96246.88;;;22.69;100.00
11038;BME280;5572;49.540;11.932;2023-09-19T13:04:39;96268.28;;;22.54;100.00
11038;BME280;5572;49.540;11.932;2023-09-19T13:07:07;96288.97;;;22.66;100.00
11038;BME280;5572;49.540;11.932;2023-09-19T13:09:35;96340.44;;;22.14;100.00
11038;BME280;5572;49.540;11.932;2023-09-19T13:12:04;96382.94;;;22.36;100.00